createdAt,value
2023-01-05T00:08:38.139Z,6.34
2023-01-05T00:18:57.825Z,6.45
2023-01-05T00:29:03.705Z,6.54
2023-01-05T00:39:09.899Z,6.64
2023-01-05T00:49:15.723Z,6.69
2023-01-05T00:59:21.480Z,6.76
2023-01-05T01:09:27.361Z,6.79
2023-01-05T01:19:33.805Z,6.80
2023-01-05T01:29:39.689Z,6.75
2023-01-05T01:39:45.494Z,6.66
2023-01-05T01:49:52.191Z,6.62
2023-01-05T02:00:00.249Z,6.61
2023-01-05T02:10:08.039Z,6.63
2023-01-05T02:20:46.947Z,6.67
2023-01-05T02:31:09.137Z,6.76
2023-01-05T02:41:22.915Z,6.84
2023-01-05T02:51:32.777Z,6.91
2023-01-05T03:01:41.834Z,6.91
2023-01-05T03:12:14.653Z,6.92
2023-01-05T03:22:41.586Z,6.91
2023-01-05T03:33:12.268Z,6.89
2023-01-05T03:43:18.416Z,6.86
2023-01-05T03:53:24.289Z,6.83
2023-01-05T04:03:32.105Z,6.74
2023-01-05T04:13:38.268Z,6.66
2023-01-05T04:23:44.078Z,6.65
2023-01-05T04:33:49.900Z,6.69
2023-01-05T04:43:55.667Z,6.76
2023-01-05T04:54:01.483Z,6.80
2023-01-05T05:04:07.401Z,6.83
2023-01-05T05:14:13.173Z,6.82
2023-01-05T05:24:18.990Z,6.80
2023-01-05T05:34:24.895Z,6.78
2023-01-05T05:44:30.722Z,6.80
2023-01-05T05:54:36.731Z,6.80
2023-01-05T06:04:42.523Z,6.81
2023-01-05T06:14:48.277Z,6.79
2023-01-05T06:24:55.094Z,6.77
2023-01-05T06:35:01.058Z,6.78
2023-01-05T06:45:08.701Z,6.79
2023-01-05T06:55:15.095Z,6.78
2023-01-05T07:05:23.325Z,6.78
2023-01-05T07:15:29.027Z,6.77
2023-01-05T07:25:34.977Z,6.82
2023-01-05T07:35:40.795Z,6.94
2023-01-05T07:45:46.459Z,7.11
2023-01-05T07:56:02.741Z,7.35
2023-01-05T08:06:11.161Z,7.46
2023-01-05T08:16:17.226Z,7.69
2023-01-05T08:26:24.497Z,8.22
2023-01-05T08:36:31.363Z,8.30
2023-01-05T08:46:38.071Z,8.67
2023-01-05T08:56:44.287Z,9.13
2023-01-05T09:06:50.059Z,8.92
2023-01-05T09:17:11.184Z,9.12
2023-01-05T09:27:17.044Z,9.32
2023-01-05T09:37:22.959Z,9.25
2023-01-05T09:47:31.588Z,9.53
2023-01-05T09:57:37.934Z,9.06
2023-01-05T10:07:48.679Z,8.92
2023-01-05T10:17:54.801Z,8.98
2023-01-05T10:28:12.053Z,8.76
2023-01-05T10:38:31.463Z,8.50
2023-01-05T10:48:38.437Z,8.55
2023-01-05T10:58:46.955Z,8.57
2023-01-05T11:08:53.071Z,8.40
2023-01-05T11:19:01.690Z,8.17
2023-01-05T11:29:15.648Z,8.32
2023-01-05T11:39:30.157Z,8.97
2023-01-05T11:49:36.710Z,9.51
2023-01-05T11:59:42.660Z,9.65
2023-01-05T12:09:55.282Z,9.30
2023-01-05T12:20:22.953Z,8.78
2023-01-05T12:41:14.944Z,7.89
2023-01-05T12:51:24.169Z,7.81
2023-01-05T13:01:35.197Z,7.59
2023-01-05T13:11:46.883Z,7.40
2023-01-05T13:21:54.980Z,7.24
2023-01-05T13:32:26.659Z,7.12
2023-01-05T13:42:54.273Z,7.07
2023-01-05T13:53:08.077Z,6.95
2023-01-05T14:03:24.463Z,6.74
2023-01-05T14:13:48.467Z,6.49
2023-01-05T14:24:00.254Z,6.30
2023-01-05T14:34:09.715Z,6.12
2023-01-05T14:44:21.492Z,6.08
2023-01-05T14:55:27.092Z,6.12
2023-01-05T15:05:43.903Z,6.13
2023-01-05T15:15:55.600Z,6.07
2023-01-05T15:26:38.362Z,5.97
2023-01-05T15:36:50.286Z,5.89
2023-01-05T15:46:56.340Z,5.83
2023-01-05T15:57:03.240Z,5.83
2023-01-05T16:07:12.009Z,5.79
2023-01-05T16:17:22.181Z,5.73
2023-01-05T16:27:28.451Z,5.52
2023-01-05T16:37:34.316Z,5.04
2023-01-05T16:47:42.514Z,4.61
2023-01-05T16:57:48.268Z,4.27
2023-01-05T17:08:03.461Z,4.10
2023-01-05T17:18:18.650Z,4.02
2023-01-05T17:28:25.109Z,3.88
2023-01-05T17:38:31.150Z,3.65
2023-01-05T17:48:37.047Z,3.53
2023-01-05T17:58:42.961Z,3.49
2023-01-05T18:08:48.751Z,3.48
2023-01-05T18:18:54.814Z,3.47
2023-01-05T18:29:00.582Z,3.46
2023-01-05T18:39:07.082Z,3.45
2023-01-05T18:49:13.366Z,3.44
2023-01-05T18:59:19.231Z,3.42
2023-01-05T19:09:24.993Z,3.43
2023-01-05T19:19:31.005Z,3.40
2023-01-05T19:29:36.829Z,3.34
2023-01-05T19:39:42.548Z,3.25
2023-01-05T19:49:48.435Z,3.17
2023-01-05T19:59:54.529Z,3.11
2023-01-05T20:10:00.361Z,3.04
2023-01-05T20:20:07.239Z,2.94
2023-01-05T20:30:15.036Z,2.78
2023-01-05T20:40:20.895Z,2.69
2023-01-05T20:50:26.841Z,2.64
2023-01-05T21:00:32.910Z,2.62
2023-01-05T21:10:39.671Z,2.54
2023-01-05T21:20:45.480Z,2.37
2023-01-05T21:30:51.402Z,2.32
2023-01-05T21:41:05.261Z,2.37
2023-01-05T21:51:31.988Z,2.43
2023-01-05T22:01:39.293Z,2.46
2023-01-05T22:11:45.593Z,2.49
2023-01-05T22:21:51.292Z,2.52
2023-01-05T22:31:58.402Z,2.50
2023-01-05T22:42:05.004Z,2.51
2023-01-05T22:52:10.895Z,2.51
2023-01-05T23:02:16.911Z,2.52
2023-01-05T23:12:22.858Z,2.50
2023-01-05T23:22:28.583Z,2.44
2023-01-05T23:32:34.686Z,2.35
2023-01-05T23:42:47.142Z,2.29
2023-01-05T23:52:52.987Z,2.22
